sensor_id;sensor_type;location;lat;lon;timestamp;temperature;humidity
11812;DHT22;5963;50.184;9.162;2023-02-27T00:01:03;-1.50;99.90
11812;DHT22;5963;50.184;9.162;2023-02-27T00:03:34;-1.60;99.90
11812;DHT22;5963;50.184;9.162;2023-02-27T00:06:07;-1.70;99.90
11812;DHT22;5963;50.184;9.162;2023-02-27T00:08:37;-1.70;99.90
11812;DHT22;5963;50.184;9.162;2023-02-27T00:11:07;-1.70;99.90
11812;DHT22;5963;50.184;9.162;2023-02-27T00:13:37;-1.80;99.90
11812;DHT22;5963;50.184;9.162;2023-02-27T00:16:07;-1.80;99.90
11812;DHT22;5963;50.184;9.162;2023-02-27T00:18:42;-1.80;99.90
11812;DHT22;5963;50.184;9.162;2023-02-27T00:21:12;-1.80;99.90
11812;DHT22;5963;50.184;9.162;2023-02-27T00:23:42;-1.80;99.90
11812;DHT22;5963;50.184;9.162;2023-02-27T00:26:12;-1.80;99.90
11812;DHT22;5963;50.184;9.162;2023-02-27T00:28:42;-1.90;99.90
11812;DHT22;5963;50.184;9.162;2023-02-27T00:31:12;-1.90;99.90
11812;DHT22;5963;50.184;9.162;2023-02-27T00:33:43;-1.80;99.90
11812;DHT22;5963;50.184;9.162;2023-02-27T00:36:14;-1.80;99.90
11812;DHT22;5963;50.184;9.162;2023-02-27T00:38:44;-1.70;99.90
11812;DHT22;5963;50.184;9.162;2023-02-27T00:41:14;-1.80;99.90
11812;DHT22;5963;50.184;9.162;2023-02-27T00:43:44;-1.80;99.90
11812;DHT22;5963;50.184;9.162;2023-02-27T00:46:14;-1.80;99.90
11812;DHT22;5963;50.184;9.162;2023-02-27T00:48:45;-1.80;99.90
11812;DHT22;5963;50.184;9.162;2023-02-27T00:51:15;-1.80;99.90
11812;DHT22;5963;50.184;9.162;2023-02-27T00:53:47;-1.80;99.90
11812;DHT22;5963;50.184;9.162;2023-02-27T00:56:17;-1.80;99.90
11812;DHT22;5963;50.184;9.162;2023-02-27T00:58:47;-1.80;99.90
11812;DHT22;5963;50.184;9.162;2023-02-27T01:01:17;-1.90;99.90
11812;DHT22;5963;50.184;9.162;2023-02-27T01:03:51;-1.90;99.90
11812;DHT22;5963;50.184;9.162;2023-02-27T01:06:22;-1.90;99.90
11812;DHT22;5963;50.184;9.162;2023-02-27T01:08:52;-2.00;99.90
11812;DHT22;5963;50.184;9.162;2023-02-27T01:11:28;-2.00;99.90
11812;DHT22;5963;50.184;9.162;2023-02-27T01:14:08;-2.10;99.90
11812;DHT22;5963;50.184;9.162;2023-02-27T01:17:13;-2.10;99.90
11812;DHT22;5963;50.184;9.162;2023-02-27T01:19:45;-2.00;99.90
11812;DHT22;5963;50.184;9.162;2023-02-27T01:22:15;-2.10;99.90
11812;DHT22;5963;50.184;9.162;2023-02-27T01:24:44;-2.10;99.90
11812;DHT22;5963;50.184;9.162;2023-02-27T01:27:14;-2.20;99.90
11812;DHT22;5963;50.184;9.162;2023-02-27T01:29:44;-2.30;99.90
11812;DHT22;5963;50.184;9.162;2023-02-27T01:32:14;-2.30;99.90
11812;DHT22;5963;50.184;9.162;2023-02-27T01:34:45;-2.30;99.90
11812;DHT22;5963;50.184;9.162;2023-02-27T01:37:16;-2.40;99.90
11812;DHT22;5963;50.184;9.162;2023-02-27T01:39:46;-2.30;99.90
11812;DHT22;5963;50.184;9.162;2023-02-27T01:42:22;-2.30;99.90
11812;DHT22;5963;50.184;9.162;2023-02-27T01:45:28;-2.50;99.90
11812;DHT22;5963;50.184;9.162;2023-02-27T01:48:02;-2.50;99.90
11812;DHT22;5963;50.184;9.162;2023-02-27T01:50:35;-2.60;99.90
11812;DHT22;5963;50.184;9.162;2023-02-27T01:53:07;-2.60;99.90
11812;DHT22;5963;50.184;9.162;2023-02-27T01:55:39;-2.60;99.90
11812;DHT22;5963;50.184;9.162;2023-02-27T01:58:10;-2.60;99.90
11812;DHT22;5963;50.184;9.162;2023-02-27T02:00:41;-2.60;99.90
11812;DHT22;5963;50.184;9.162;2023-02-27T02:03:17;-2.70;99.90
11812;DHT22;5963;50.184;9.162;2023-02-27T02:05:50;-2.70;99.90
11812;DHT22;5963;50.184;9.162;2023-02-27T02:08:24;-2.80;99.90
11812;DHT22;5963;50.184;9.162;2023-02-27T02:10:59;-2.70;99.90
11812;DHT22;5963;50.184;9.162;2023-02-27T02:13:29;-2.70;99.90
11812;DHT22;5963;50.184;9.162;2023-02-27T02:16:13;-2.80;99.90
11812;DHT22;5963;50.184;9.162;2023-02-27T02:18:53;-2.70;99.90
11812;DHT22;5963;50.184;9.162;2023-02-27T02:25:01;-2.90;99.90
11812;DHT22;5963;50.184;9.162;2023-02-27T02:27:44;-2.90;99.90
11812;DHT22;5963;50.184;9.162;2023-02-27T02:30:42;-2.90;99.90
11812;DHT22;5963;50.184;9.162;2023-02-27T02:33:49;-2.90;99.90
11812;DHT22;5963;50.184;9.162;2023-02-27T02:36:58;-2.90;99.90
11812;DHT22;5963;50.184;9.162;2023-02-27T02:39:58;-2.90;99.90
11812;DHT22;5963;50.184;9.162;2023-02-27T02:42:33;-2.90;99.90
11812;DHT22;5963;50.184;9.162;2023-02-27T02:45:11;-2.80;99.90
11812;DHT22;5963;50.184;9.162;2023-02-27T02:47:48;-2.80;99.90
11812;DHT22;5963;50.184;9.162;2023-02-27T02:50:23;-2.70;99.90
11812;DHT22;5963;50.184;9.162;2023-02-27T02:53:00;-2.70;99.90
11812;DHT22;5963;50.184;9.162;2023-02-27T02:55:36;-2.70;99.90
11812;DHT22;5963;50.184;9.162;2023-02-27T02:58:11;-2.80;99.90
11812;DHT22;5963;50.184;9.162;2023-02-27T03:00:47;-2.80;99.90
11812;DHT22;5963;50.184;9.162;2023-02-27T03:03:23;-2.90;99.90
11812;DHT22;5963;50.184;9.162;2023-02-27T03:05:57;-2.90;99.90
11812;DHT22;5963;50.184;9.162;2023-02-27T03:08:31;-2.90;99.90
11812;DHT22;5963;50.184;9.162;2023-02-27T03:11:04;-3.00;99.90
11812;DHT22;5963;50.184;9.162;2023-02-27T03:13:37;-3.00;99.90
11812;DHT22;5963;50.184;9.162;2023-02-27T03:16:12;-2.90;99.90
11812;DHT22;5963;50.184;9.162;2023-02-27T03:18:48;-2.90;99.90
11812;DHT22;5963;50.184;9.162;2023-02-27T03:21:22;-2.90;99.90
11812;DHT22;5963;50.184;9.162;2023-02-27T03:23:58;-2.90;99.90
11812;DHT22;5963;50.184;9.162;2023-02-27T03:26:35;-3.00;99.90
11812;DHT22;5963;50.184;9.162;2023-02-27T03:29:09;-3.00;99.90
11812;DHT22;5963;50.184;9.162;2023-02-27T03:31:43;-2.90;99.90
11812;DHT22;5963;50.184;9.162;2023-02-27T03:34:20;-3.00;99.90
11812;DHT22;5963;50.184;9.162;2023-02-27T03:36:57;-3.00;99.90
11812;DHT22;5963;50.184;9.162;2023-02-27T03:39:34;-2.90;99.90
11812;DHT22;5963;50.184;9.162;2023-02-27T03:42:17;-2.90;99.90
11812;DHT22;5963;50.184;9.162;2023-02-27T03:44:53;-2.90;99.90
11812;DHT22;5963;50.184;9.162;2023-02-27T03:47:26;-2.90;99.90
11812;DHT22;5963;50.184;9.162;2023-02-27T03:49:57;-2.90;99.90
11812;DHT22;5963;50.184;9.162;2023-02-27T03:52:27;-2.90;99.90
11812;DHT22;5963;50.184;9.162;2023-02-27T03:55:00;-2.90;99.90
11812;DHT22;5963;50.184;9.162;2023-02-27T03:57:32;-2.90;99.90
11812;DHT22;5963;50.184;9.162;2023-02-27T04:00:05;-2.90;99.90
11812;DHT22;5963;50.184;9.162;2023-02-27T04:02:38;-2.90;99.90
11812;DHT22;5963;50.184;9.162;2023-02-27T04:05:09;-2.90;99.90
11812;DHT22;5963;50.184;9.162;2023-02-27T04:07:51;-2.90;99.90
11812;DHT22;5963;50.184;9.162;2023-02-27T04:10:33;-2.90;99.90
11812;DHT22;5963;50.184;9.162;2023-02-27T04:13:38;-2.90;99.90
11812;DHT22;5963;50.184;9.162;2023-02-27T04:19:15;-2.80;99.90
11812;DHT22;5963;50.184;9.162;2023-02-27T04:21:52;-2.80;99.90
11812;DHT22;5963;50.184;9.162;2023-02-27T04:24:33;-2.80;99.90
11812;DHT22;5963;50.184;9.162;2023-02-27T04:27:07;-2.90;99.90
11812;DHT22;5963;50.184;9.162;2023-02-27T04:29:49;-2.90;99.90
11812;DHT22;5963;50.184;9.162;2023-02-27T04:32:29;-2.90;99.90
11812;DHT22;5963;50.184;9.162;2023-02-27T04:35:02;-2.90;99.90
11812;DHT22;5963;50.184;9.162;2023-02-27T04:37:41;-2.90;99.90
11812;DHT22;5963;50.184;9.162;2023-02-27T04:40:14;-2.90;99.90
11812;DHT22;5963;50.184;9.162;2023-02-27T04:42:46;-2.90;99.90
11812;DHT22;5963;50.184;9.162;2023-02-27T04:45:21;-2.90;99.90
11812;DHT22;5963;50.184;9.162;2023-02-27T04:47:54;-2.90;99.90
11812;DHT22;5963;50.184;9.162;2023-02-27T04:50:29;-2.90;99.90
11812;DHT22;5963;50.184;9.162;2023-02-27T04:53:03;-2.90;99.90
11812;DHT22;5963;50.184;9.162;2023-02-27T04:55:34;-2.90;99.90
11812;DHT22;5963;50.184;9.162;2023-02-27T04:58:09;-2.90;99.90
11812;DHT22;5963;50.184;9.162;2023-02-27T05:00:44;-2.80;99.90
11812;DHT22;5963;50.184;9.162;2023-02-27T05:03:20;-2.90;99.90
11812;DHT22;5963;50.184;9.162;2023-02-27T05:05:56;-2.90;99.90
11812;DHT22;5963;50.184;9.162;2023-02-27T05:08:32;-2.90;99.90
11812;DHT22;5963;50.184;9.162;2023-02-27T05:11:04;-2.90;99.90
11812;DHT22;5963;50.184;9.162;2023-02-27T05:13:39;-2.90;99.90
11812;DHT22;5963;50.184;9.162;2023-02-27T05:16:15;-2.90;99.90
11812;DHT22;5963;50.184;9.162;2023-02-27T05:18:47;-2.90;99.90
11812;DHT22;5963;50.184;9.162;2023-02-27T05:21:23;-3.00;99.90
11812;DHT22;5963;50.184;9.162;2023-02-27T05:24:05;-2.90;99.90
11812;DHT22;5963;50.184;9.162;2023-02-27T05:26:50;-2.90;99.90
11812;DHT22;5963;50.184;9.162;2023-02-27T05:29:27;-3.00;99.90
11812;DHT22;5963;50.184;9.162;2023-02-27T05:32:06;-3.10;99.90
11812;DHT22;5963;50.184;9.162;2023-02-27T05:34:45;-3.10;99.90
11812;DHT22;5963;50.184;9.162;2023-02-27T05:37:22;-3.10;99.90
11812;DHT22;5963;50.184;9.162;2023-02-27T05:39:53;-3.10;99.90
11812;DHT22;5963;50.184;9.162;2023-02-27T05:42:26;-3.10;99.90
11812;DHT22;5963;50.184;9.162;2023-02-27T05:44:59;-3.10;99.90
11812;DHT22;5963;50.184;9.162;2023-02-27T05:47:36;-3.10;99.90
11812;DHT22;5963;50.184;9.162;2023-02-27T05:50:10;-3.10;99.90
11812;DHT22;5963;50.184;9.162;2023-02-27T05:52:42;-3.10;99.90
11812;DHT22;5963;50.184;9.162;2023-02-27T05:55:17;-3.10;99.90
11812;DHT22;5963;50.184;9.162;2023-02-27T05:57:52;-3.00;99.90
11812;DHT22;5963;50.184;9.162;2023-02-27T06:00:28;-3.10;99.90
11812;DHT22;5963;50.184;9.162;2023-02-27T06:03:01;-3.10;99.90
11812;DHT22;5963;50.184;9.162;2023-02-27T06:05:31;-3.10;99.90
11812;DHT22;5963;50.184;9.162;2023-02-27T06:08:01;-3.10;99.90
11812;DHT22;5963;50.184;9.162;2023-02-27T06:10:30;-3.10;99.90
11812;DHT22;5963;50.184;9.162;2023-02-27T06:13:00;-3.10;99.90
11812;DHT22;5963;50.184;9.162;2023-02-27T06:15:29;-3.20;99.90
11812;DHT22;5963;50.184;9.162;2023-02-27T06:18:01;-3.20;99.90
11812;DHT22;5963;50.184;9.162;2023-02-27T06:20:31;-3.20;99.90
11812;DHT22;5963;50.184;9.162;2023-02-27T06:23:01;-3.20;99.90
11812;DHT22;5963;50.184;9.162;2023-02-27T06:25:31;-3.20;99.90
11812;DHT22;5963;50.184;9.162;2023-02-27T06:28:00;-3.20;99.90
11812;DHT22;5963;50.184;9.162;2023-02-27T06:30:31;-3.20;99.90
11812;DHT22;5963;50.184;9.162;2023-02-27T06:33:02;-3.20;99.90
11812;DHT22;5963;50.184;9.162;2023-02-27T06:35:32;-3.20;99.90
11812;DHT22;5963;50.184;9.162;2023-02-27T06:38:02;-3.20;99.90
11812;DHT22;5963;50.184;9.162;2023-02-27T06:40:32;-3.20;99.90
11812;DHT22;5963;50.184;9.162;2023-02-27T06:43:02;-3.20;99.90
11812;DHT22;5963;50.184;9.162;2023-02-27T06:45:32;-3.10;99.90
11812;DHT22;5963;50.184;9.162;2023-02-27T06:48:05;-3.10;99.90
11812;DHT22;5963;50.184;9.162;2023-02-27T06:50:37;-3.10;99.90
11812;DHT22;5963;50.184;9.162;2023-02-27T06:53:08;-3.10;99.90
11812;DHT22;5963;50.184;9.162;2023-02-27T06:55:38;-3.00;99.90
11812;DHT22;5963;50.184;9.162;2023-02-27T06:58:09;-3.00;99.90
11812;DHT22;5963;50.184;9.162;2023-02-27T07:00:39;-3.00;99.90
11812;DHT22;5963;50.184;9.162;2023-02-27T07:03:11;-3.00;99.90
11812;DHT22;5963;50.184;9.162;2023-02-27T07:05:41;-2.90;99.90
11812;DHT22;5963;50.184;9.162;2023-02-27T07:08:12;-2.90;99.90
11812;DHT22;5963;50.184;9.162;2023-02-27T07:10:45;-2.80;99.90
11812;DHT22;5963;50.184;9.162;2023-02-27T07:13:17;-2.70;99.90
11812;DHT22;5963;50.184;9.162;2023-02-27T07:15:51;-2.50;99.90
11812;DHT22;5963;50.184;9.162;2023-02-27T07:18:23;-2.40;99.90
11812;DHT22;5963;50.184;9.162;2023-02-27T07:20:53;-2.20;99.90
11812;DHT22;5963;50.184;9.162;2023-02-27T07:23:24;-2.20;99.90
11812;DHT22;5963;50.184;9.162;2023-02-27T07:25:54;-2.00;99.90
11812;DHT22;5963;50.184;9.162;2023-02-27T07:28:24;-2.00;99.90
11812;DHT22;5963;50.184;9.162;2023-02-27T07:30:54;-1.90;99.90
11812;DHT22;5963;50.184;9.162;2023-02-27T07:33:26;-1.70;99.90
11812;DHT22;5963;50.184;9.162;2023-02-27T07:35:56;-1.80;99.90
11812;DHT22;5963;50.184;9.162;2023-02-27T07:38:26;-1.70;99.90
11812;DHT22;5963;50.184;9.162;2023-02-27T07:40:57;-1.60;99.90
11812;DHT22;5963;50.184;9.162;2023-02-27T07:43:27;-1.60;99.90
11812;DHT22;5963;50.184;9.162;2023-02-27T07:45:57;-1.40;99.90
11812;DHT22;5963;50.184;9.162;2023-02-27T07:48:28;-1.30;99.90
11812;DHT22;5963;50.184;9.162;2023-02-27T07:50:58;-1.20;99.90
11812;DHT22;5963;50.184;9.162;2023-02-27T07:53:28;-1.10;99.90
11812;DHT22;5963;50.184;9.162;2023-02-27T07:55:58;-1.00;99.90
11812;DHT22;5963;50.184;9.162;2023-02-27T07:58:28;-1.10;99.90
11812;DHT22;5963;50.184;9.162;2023-02-27T08:00:58;-0.90;99.90
11812;DHT22;5963;50.184;9.162;2023-02-27T08:03:29;-0.90;99.90
11812;DHT22;5963;50.184;9.162;2023-02-27T08:05:58;-0.80;99.90
11812;DHT22;5963;50.184;9.162;2023-02-27T08:08:30;-0.80;99.90
11812;DHT22;5963;50.184;9.162;2023-02-27T08:11:00;-0.80;99.90
11812;DHT22;5963;50.184;9.162;2023-02-27T08:13:30;-0.80;99.90
11812;DHT22;5963;50.184;9.162;2023-02-27T08:16:20;-0.70;99.90
11812;DHT22;5963;50.184;9.162;2023-02-27T08:18:51;-0.40;99.90
11812;DHT22;5963;50.184;9.162;2023-02-27T08:21:23;-0.30;99.90
11812;DHT22;5963;50.184;9.162;2023-02-27T08:23:54;-0.10;99.90
11812;DHT22;5963;50.184;9.162;2023-02-27T08:26:24;-0.10;99.90
11812;DHT22;5963;50.184;9.162;2023-02-27T08:28:54;0.10;99.90
11812;DHT22;5963;50.184;9.162;2023-02-27T08:31:24;0.20;99.90
11812;DHT22;5963;50.184;9.162;2023-02-27T08:33:55;0.20;99.90
11812;DHT22;5963;50.184;9.162;2023-02-27T08:36:37;0.10;99.90
11812;DHT22;5963;50.184;9.162;2023-02-27T08:39:08;0.40;99.90
11812;DHT22;5963;50.184;9.162;2023-02-27T08:41:42;0.40;99.90
11812;DHT22;5963;50.184;9.162;2023-02-27T08:44:12;0.40;99.90
11812;DHT22;5963;50.184;9.162;2023-02-27T08:46:42;0.50;99.90
11812;DHT22;5963;50.184;9.162;2023-02-27T08:49:13;0.50;99.90
11812;DHT22;5963;50.184;9.162;2023-02-27T08:51:47;0.80;99.90
11812;DHT22;5963;50.184;9.162;2023-02-27T08:54:18;0.90;99.90
11812;DHT22;5963;50.184;9.162;2023-02-27T08:56:48;0.90;99.90
11812;DHT22;5963;50.184;9.162;2023-02-27T08:59:18;1.00;99.90
11812;DHT22;5963;50.184;9.162;2023-02-27T09:01:46;1.00;99.90
11812;DHT22;5963;50.184;9.162;2023-02-27T09:04:17;1.20;99.90
11812;DHT22;5963;50.184;9.162;2023-02-27T09:06:48;1.20;99.90
11812;DHT22;5963;50.184;9.162;2023-02-27T09:09:18;1.30;99.90
11812;DHT22;5963;50.184;9.162;2023-02-27T09:11:48;1.20;99.90
11812;DHT22;5963;50.184;9.162;2023-02-27T09:14:22;1.30;99.90
11812;DHT22;5963;50.184;9.162;2023-02-27T09:16:52;1.40;99.90
11812;DHT22;5963;50.184;9.162;2023-02-27T09:19:26;1.40;99.90
11812;DHT22;5963;50.184;9.162;2023-02-27T09:21:56;1.60;99.90
11812;DHT22;5963;50.184;9.162;2023-02-27T09:24:26;1.70;99.90
11812;DHT22;5963;50.184;9.162;2023-02-27T09:26:56;1.60;99.90
11812;DHT22;5963;50.184;9.162;2023-02-27T09:29:26;1.50;99.90
11812;DHT22;5963;50.184;9.162;2023-02-27T09:31:55;1.60;99.90
11812;DHT22;5963;50.184;9.162;2023-02-27T09:34:27;1.60;99.90
11812;DHT22;5963;50.184;9.162;2023-02-27T09:36:59;1.70;99.90
11812;DHT22;5963;50.184;9.162;2023-02-27T09:39:29;1.60;99.90
11812;DHT22;5963;50.184;9.162;2023-02-27T09:42:02;2.00;99.90
11812;DHT22;5963;50.184;9.162;2023-02-27T09:44:34;2.10;99.90
11812;DHT22;5963;50.184;9.162;2023-02-27T09:47:20;2.30;99.90
11812;DHT22;5963;50.184;9.162;2023-02-27T09:50:03;2.30;99.90
11812;DHT22;5963;50.184;9.162;2023-02-27T09:52:36;2.60;99.90
11812;DHT22;5963;50.184;9.162;2023-02-27T09:55:10;2.90;99.90
11812;DHT22;5963;50.184;9.162;2023-02-27T09:57:51;3.10;99.90
11812;DHT22;5963;50.184;9.162;2023-02-27T10:00:31;2.80;99.90
11812;DHT22;5963;50.184;9.162;2023-02-27T10:03:21;2.90;99.90
11812;DHT22;5963;50.184;9.162;2023-02-27T10:06:03;2.60;99.90
11812;DHT22;5963;50.184;9.162;2023-02-27T10:08:41;2.70;99.90
11812;DHT22;5963;50.184;9.162;2023-02-27T10:11:22;2.80;99.90
11812;DHT22;5963;50.184;9.162;2023-02-27T10:14:02;2.60;99.90
11812;DHT22;5963;50.184;9.162;2023-02-27T10:16:35;2.30;99.90
11812;DHT22;5963;50.184;9.162;2023-02-27T10:19:15;2.10;99.90
11812;DHT22;5963;50.184;9.162;2023-02-27T10:21:50;1.90;99.90
11812;DHT22;5963;50.184;9.162;2023-02-27T10:24:27;1.80;99.90
11812;DHT22;5963;50.184;9.162;2023-02-27T10:27:00;2.10;99.90
11812;DHT22;5963;50.184;9.162;2023-02-27T10:29:34;2.50;99.90
11812;DHT22;5963;50.184;9.162;2023-02-27T10:32:14;2.50;99.90
11812;DHT22;5963;50.184;9.162;2023-02-27T10:34:53;2.60;99.90
11812;DHT22;5963;50.184;9.162;2023-02-27T10:37:29;2.30;99.90
11812;DHT22;5963;50.184;9.162;2023-02-27T10:40:02;2.30;99.90
11812;DHT22;5963;50.184;9.162;2023-02-27T10:42:37;2.40;99.90
11812;DHT22;5963;50.184;9.162;2023-02-27T10:45:11;2.30;99.90
11812;DHT22;5963;50.184;9.162;2023-02-27T10:47:47;2.30;99.90
11812;DHT22;5963;50.184;9.162;2023-02-27T10:50:24;2.30;99.90
11812;DHT22;5963;50.184;9.162;2023-02-27T10:52:57;2.20;99.90
11812;DHT22;5963;50.184;9.162;2023-02-27T10:55:31;2.20;99.90
11812;DHT22;5963;50.184;9.162;2023-02-27T10:58:02;2.20;99.90
11812;DHT22;5963;50.184;9.162;2023-02-27T11:00:44;2.30;99.90
11812;DHT22;5963;50.184;9.162;2023-02-27T11:03:21;2.40;99.90
11812;DHT22;5963;50.184;9.162;2023-02-27T11:05:57;2.30;99.90
11812;DHT22;5963;50.184;9.162;2023-02-27T11:08:38;2.40;99.90
11812;DHT22;5963;50.184;9.162;2023-02-27T11:11:12;2.60;99.90
11812;DHT22;5963;50.184;9.162;2023-02-27T11:13:44;2.50;99.90
11812;DHT22;5963;50.184;9.162;2023-02-27T11:16:16;2.60;99.90
11812;DHT22;5963;50.184;9.162;2023-02-27T11:18:51;2.80;99.90
11812;DHT22;5963;50.184;9.162;2023-02-27T11:21:26;2.90;99.90
11812;DHT22;5963;50.184;9.162;2023-02-27T11:24:09;3.00;99.90
11812;DHT22;5963;50.184;9.162;2023-02-27T11:26:55;3.50;99.90
11812;DHT22;5963;50.184;9.162;2023-02-27T11:29:25;3.60;99.90
11812;DHT22;5963;50.184;9.162;2023-02-27T11:32:01;3.60;99.90
11812;DHT22;5963;50.184;9.162;2023-02-27T11:34:34;3.90;99.90
11812;DHT22;5963;50.184;9.162;2023-02-27T11:37:17;4.20;99.90
11812;DHT22;5963;50.184;9.162;2023-02-27T11:39:55;4.50;99.90
11812;DHT22;5963;50.184;9.162;2023-02-27T11:42:30;4.40;99.90
11812;DHT22;5963;50.184;9.162;2023-02-27T11:45:05;4.30;99.90
11812;DHT22;5963;50.184;9.162;2023-02-27T11:47:38;4.00;99.90
11812;DHT22;5963;50.184;9.162;2023-02-27T11:53:24;3.60;99.90
11812;DHT22;5963;50.184;9.162;2023-02-27T11:56:01;4.20;99.90
11812;DHT22;5963;50.184;9.162;2023-02-27T11:58:36;4.20;99.90
11812;DHT22;5963;50.184;9.162;2023-02-27T12:01:16;4.20;99.90
11812;DHT22;5963;50.184;9.162;2023-02-27T12:03:54;4.30;99.90
11812;DHT22;5963;50.184;9.162;2023-02-27T12:06:34;4.50;99.90
11812;DHT22;5963;50.184;9.162;2023-02-27T12:09:08;5.00;99.90
11812;DHT22;5963;50.184;9.162;2023-02-27T12:11:46;4.80;99.90
11812;DHT22;5963;50.184;9.162;2023-02-27T12:14:25;4.40;99.90
11812;DHT22;5963;50.184;9.162;2023-02-27T12:17:03;4.40;99.90
11812;DHT22;5963;50.184;9.162;2023-02-27T12:19:42;4.70;99.90
11812;DHT22;5963;50.184;9.162;2023-02-27T12:22:20;4.70;99.90
11812;DHT22;5963;50.184;9.162;2023-02-27T12:24:56;4.40;99.90
11812;DHT22;5963;50.184;9.162;2023-02-27T12:27:31;4.40;99.90
11812;DHT22;5963;50.184;9.162;2023-02-27T12:30:15;4.30;99.90
11812;DHT22;5963;50.184;9.162;2023-02-27T12:32:55;4.50;99.90
11812;DHT22;5963;50.184;9.162;2023-02-27T12:35:29;4.90;99.90
11812;DHT22;5963;50.184;9.162;2023-02-27T12:38:01;4.90;99.90
11812;DHT22;5963;50.184;9.162;2023-02-27T12:40:38;4.80;99.90
11812;DHT22;5963;50.184;9.162;2023-02-27T12:43:22;5.10;99.90
11812;DHT22;5963;50.184;9.162;2023-02-27T12:46:06;5.30;99.90
11812;DHT22;5963;50.184;9.162;2023-02-27T12:48:52;5.40;99.90
11812;DHT22;5963;50.184;9.162;2023-02-27T12:51:41;5.30;99.50
11812;DHT22;5963;50.184;9.162;2023-02-27T12:54:26;5.30;99.30
11812;DHT22;5963;50.184;9.162;2023-02-27T12:57:05;5.50;99.90
11812;DHT22;5963;50.184;9.162;2023-02-27T12:59:51;5.70;99.90
11812;DHT22;5963;50.184;9.162;2023-02-27T13:02:48;5.30;99.90
11812;DHT22;5963;50.184;9.162;2023-02-27T13:05:44;5.50;99.90
11812;DHT22;5963;50.184;9.162;2023-02-27T13:08:31;5.40;99.50
11812;DHT22;5963;50.184;9.162;2023-02-27T13:11:11;5.00;99.90
11812;DHT22;5963;50.184;9.162;2023-02-27T13:13:57;5.30;99.90
11812;DHT22;5963;50.184;9.162;2023-02-27T13:16:32;5.70;99.30
11812;DHT22;5963;50.184;9.162;2023-02-27T13:19:15;5.10;98.30
11812;DHT22;5963;50.184;9.162;2023-02-27T13:21:49;4.80;99.10
11812;DHT22;5963;50.184;9.162;2023-02-27T13:24:27;4.70;98.70
11812;DHT22;5963;50.184;9.162;2023-02-27T13:26:59;4.50;99.20
11812;DHT22;5963;50.184;9.162;2023-02-27T13:29:35;4.60;99.50
11812;DHT22;5963;50.184;9.162;2023-02-27T13:32:19;4.80;98.60
11812;DHT22;5963;50.184;9.162;2023-02-27T13:35:18;5.00;98.00
11812;DHT22;5963;50.184;9.162;2023-02-27T13:37:53;5.10;98.60
11812;DHT22;5963;50.184;9.162;2023-02-27T13:40:28;4.90;97.60
11812;DHT22;5963;50.184;9.162;2023-02-27T13:43:10;4.50;96.90
11812;DHT22;5963;50.184;9.162;2023-02-27T13:45:58;4.20;97.40
11812;DHT22;5963;50.184;9.162;2023-02-27T13:48:53;4.30;97.70
11812;DHT22;5963;50.184;9.162;2023-02-27T13:51:52;4.60;97.80
11812;DHT22;5963;50.184;9.162;2023-02-27T13:54:26;4.80;97.40
11812;DHT22;5963;50.184;9.162;2023-02-27T13:57:18;4.70;97.60
11812;DHT22;5963;50.184;9.162;2023-02-27T14:00:15;4.90;97.00
11812;DHT22;5963;50.184;9.162;2023-02-27T14:02:55;4.90;97.10
11812;DHT22;5963;50.184;9.162;2023-02-27T14:05:32;5.00;97.80
11812;DHT22;5963;50.184;9.162;2023-02-27T14:08:15;5.00;97.60
11812;DHT22;5963;50.184;9.162;2023-02-27T14:10:54;4.60;96.80
11812;DHT22;5963;50.184;9.162;2023-02-27T14:14:03;4.20;96.70
11812;DHT22;5963;50.184;9.162;2023-02-27T14:16:56;4.30;97.90
11812;DHT22;5963;50.184;9.162;2023-02-27T14:19:51;4.40;96.50
11812;DHT22;5963;50.184;9.162;2023-02-27T14:25:39;4.40;97.30
11812;DHT22;5963;50.184;9.162;2023-02-27T14:28:22;4.50;97.30
11812;DHT22;5963;50.184;9.162;2023-02-27T14:30:56;4.50;97.60
11812;DHT22;5963;50.184;9.162;2023-02-27T14:33:32;4.50;97.90
11812;DHT22;5963;50.184;9.162;2023-02-27T14:36:12;4.60;97.70
11812;DHT22;5963;50.184;9.162;2023-02-27T14:38:47;4.60;98.00
11812;DHT22;5963;50.184;9.162;2023-02-27T14:41:32;4.30;96.70
11812;DHT22;5963;50.184;9.162;2023-02-27T14:44:15;4.00;96.90
11812;DHT22;5963;50.184;9.162;2023-02-27T14:46:49;4.10;96.70
11812;DHT22;5963;50.184;9.162;2023-02-27T14:49:21;4.10;97.30
11812;DHT22;5963;50.184;9.162;2023-02-27T14:51:51;4.10;97.40
11812;DHT22;5963;50.184;9.162;2023-02-27T14:54:24;4.10;98.00
11812;DHT22;5963;50.184;9.162;2023-02-27T14:57:00;4.40;97.90
11812;DHT22;5963;50.184;9.162;2023-02-27T14:59:33;4.60;97.40
11812;DHT22;5963;50.184;9.162;2023-02-27T15:02:16;4.50;96.80
11812;DHT22;5963;50.184;9.162;2023-02-27T15:04:47;4.30;97.90
11812;DHT22;5963;50.184;9.162;2023-02-27T15:07:20;4.40;97.40
11812;DHT22;5963;50.184;9.162;2023-02-27T15:09:56;4.00;98.10
11812;DHT22;5963;50.184;9.162;2023-02-27T15:12:28;3.80;98.30
11812;DHT22;5963;50.184;9.162;2023-02-27T15:15:01;3.70;98.80
11812;DHT22;5963;50.184;9.162;2023-02-27T15:17:38;3.60;98.90
11812;DHT22;5963;50.184;9.162;2023-02-27T15:20:24;3.60;99.30
11812;DHT22;5963;50.184;9.162;2023-02-27T15:22:55;3.50;99.40
11812;DHT22;5963;50.184;9.162;2023-02-27T15:25:31;3.50;99.50
11812;DHT22;5963;50.184;9.162;2023-02-27T15:30:54;3.40;98.60
11812;DHT22;5963;50.184;9.162;2023-02-27T15:33:26;3.50;99.50
11812;DHT22;5963;50.184;9.162;2023-02-27T15:35:57;3.70;98.50
11812;DHT22;5963;50.184;9.162;2023-02-27T15:38:30;3.70;98.20
11812;DHT22;5963;50.184;9.162;2023-02-27T15:41:02;3.50;98.40
11812;DHT22;5963;50.184;9.162;2023-02-27T15:43:36;3.40;98.90
11812;DHT22;5963;50.184;9.162;2023-02-27T15:46:06;3.50;99.20
11812;DHT22;5963;50.184;9.162;2023-02-27T15:48:36;3.40;99.50
11812;DHT22;5963;50.184;9.162;2023-02-27T15:51:09;3.40;99.70
11812;DHT22;5963;50.184;9.162;2023-02-27T15:53:51;3.40;99.60
11812;DHT22;5963;50.184;9.162;2023-02-27T15:56:25;3.60;99.80
11812;DHT22;5963;50.184;9.162;2023-02-27T15:58:59;3.70;99.90
11812;DHT22;5963;50.184;9.162;2023-02-27T16:01:33;3.70;99.40
11812;DHT22;5963;50.184;9.162;2023-02-27T16:04:13;3.50;98.80
11812;DHT22;5963;50.184;9.162;2023-02-27T16:06:52;3.40;98.80
11812;DHT22;5963;50.184;9.162;2023-02-27T16:09:30;3.40;99.30
11812;DHT22;5963;50.184;9.162;2023-02-27T16:12:18;3.20;99.40
11812;DHT22;5963;50.184;9.162;2023-02-27T16:14:52;3.20;99.50
11812;DHT22;5963;50.184;9.162;2023-02-27T16:17:41;3.20;99.90
11812;DHT22;5963;50.184;9.162;2023-02-27T16:20:36;3.10;99.90
11812;DHT22;5963;50.184;9.162;2023-02-27T16:23:14;2.90;99.90
11812;DHT22;5963;50.184;9.162;2023-02-27T16:25:59;3.00;99.90
11812;DHT22;5963;50.184;9.162;2023-02-27T16:28:32;2.90;99.50
11812;DHT22;5963;50.184;9.162;2023-02-27T16:31:16;2.80;99.80
11812;DHT22;5963;50.184;9.162;2023-02-27T16:33:49;2.90;99.90
11812;DHT22;5963;50.184;9.162;2023-02-27T16:36:23;2.80;99.90
11812;DHT22;5963;50.184;9.162;2023-02-27T16:38:53;2.70;99.40
11812;DHT22;5963;50.184;9.162;2023-02-27T16:41:24;2.60;99.60
11812;DHT22;5963;50.184;9.162;2023-02-27T16:43:54;2.60;99.60
11812;DHT22;5963;50.184;9.162;2023-02-27T16:46:26;2.70;99.00
11812;DHT22;5963;50.184;9.162;2023-02-27T16:48:59;2.60;99.30
11812;DHT22;5963;50.184;9.162;2023-02-27T16:51:46;2.70;99.50
11812;DHT22;5963;50.184;9.162;2023-02-27T16:54:17;2.80;99.60
11812;DHT22;5963;50.184;9.162;2023-02-27T16:56:48;2.70;99.90
11812;DHT22;5963;50.184;9.162;2023-02-27T16:59:31;2.60;99.80
11812;DHT22;5963;50.184;9.162;2023-02-27T17:02:06;2.60;99.80
11812;DHT22;5963;50.184;9.162;2023-02-27T17:04:36;2.60;99.80